sensor_id;sensor_type;location;lat;lon;timestamp;pressure;altitude;pressure_sealevel;temperature;humidity
54882;BME280;40775;51.448;4.742;2023-04-21T00:02:15;101387.81;;;9.48;100.00
54882;BME280;40775;51.448;4.742;2023-04-21T00:04:43;101391.41;;;9.51;100.00
54882;BME280;40775;51.448;4.742;2023-04-21T00:07:13;101388.69;;;9.48;100.00
54882;BME280;40775;51.448;4.742;2023-04-21T00:09:40;101372.97;;;9.48;100.00
54882;BME280;40775;51.448;4.742;2023-04-21T00:12:08;101369.31;;;9.43;100.00
54882;BME280;40775;51.448;4.742;2023-04-21T00:14:35;101378.75;;;9.38;100.00
54882;BME280;40775;51.448;4.742;2023-04-21T00:17:02;101381.28;;;9.35;100.00
54882;BME280;40775;51.448;4.742;2023-04-21T00:19:29;101383.94;;;9.37;100.00
54882;BME280;40775;51.448;4.742;2023-04-21T00:21:56;101375.94;;;9.32;100.00
54882;BME280;40775;51.448;4.742;2023-04-21T00:24:27;101365.28;;;9.27;100.00
54882;BME280;40775;51.448;4.742;2023-04-21T00:26:54;101375.94;;;9.32;100.00
54882;BME280;40775;51.448;4.742;2023-04-21T00:29:21;101377.72;;;9.33;100.00
54882;BME280;40775;51.448;4.742;2023-04-21T00:31:55;101381.97;;;9.31;100.00
54882;BME280;40775;51.448;4.742;2023-04-21T00:34:22;101375.78;;;9.29;100.00
54882;BME280;40775;51.448;4.742;2023-04-21T00:36:49;101388.06;;;9.30;100.00
54882;BME280;40775;51.448;4.742;2023-04-21T00:39:16;101381.88;;;9.28;100.00
54882;BME280;40775;51.448;4.742;2023-04-21T00:41:43;101372.19;;;9.25;100.00
54882;BME280;40775;51.448;4.742;2023-04-21T00:44:10;101375.59;;;9.23;100.00
54882;BME280;40775;51.448;4.742;2023-04-21T00:46:37;101367.84;;;9.26;100.00
54882;BME280;40775;51.448;4.742;2023-04-21T00:49:06;101367.47;;;9.15;100.00
54882;BME280;40775;51.448;4.742;2023-04-21T00:51:35;101365.13;;;9.23;100.00
54882;BME280;40775;51.448;4.742;2023-04-21T00:54:07;101366.00;;;9.23;100.00
54882;BME280;40775;51.448;4.742;2023-04-21T00:56:35;101369.53;;;9.24;100.00
54882;BME280;40775;51.448;4.742;2023-04-21T00:59:03;101378.13;;;9.20;100.00
54882;BME280;40775;51.448;4.742;2023-04-21T01:01:31;101380.63;;;9.17;100.00
54882;BME280;40775;51.448;4.742;2023-04-21T01:04:01;101379.84;;;9.19;100.00
54882;BME280;40775;51.448;4.742;2023-04-21T01:06:30;101386.88;;;9.20;100.00
54882;BME280;40775;51.448;4.742;2023-04-21T01:09:01;101375.59;;;9.23;100.00
54882;BME280;40775;51.448;4.742;2023-04-21T01:11:29;101372.03;;;9.21;100.00
54882;BME280;40775;51.448;4.742;2023-04-21T01:13:58;101372.94;;;9.21;100.00
54882;BME280;40775;51.448;4.742;2023-04-21T01:16:25;101378.97;;;9.19;100.00
54882;BME280;40775;51.448;4.742;2023-04-21T01:18:52;101372.09;;;9.22;100.00
54882;BME280;40775;51.448;4.742;2023-04-21T01:21:20;101368.38;;;9.16;100.00
54882;BME280;40775;51.448;4.742;2023-04-21T01:23:47;101370.22;;;9.18;100.00
54882;BME280;40775;51.448;4.742;2023-04-21T01:26:18;101359.63;;;9.15;100.00
54882;BME280;40775;51.448;4.742;2023-04-21T01:28:46;101366.66;;;9.16;100.00
54882;BME280;40775;51.448;4.742;2023-04-21T01:31:15;101357.91;;;9.16;100.00
54882;BME280;40775;51.448;4.742;2023-04-21T01:33:43;101351.72;;;9.14;100.00
54882;BME280;40775;51.448;4.742;2023-04-21T01:36:10;101347.41;;;9.16;100.00
54882;BME280;40775;51.448;4.742;2023-04-21T01:38:40;101349.00;;;9.11;100.00
54882;BME280;40775;51.448;4.742;2023-04-21T01:41:08;101344.56;;;9.08;100.00
54882;BME280;40775;51.448;4.742;2023-04-21T01:43:35;101338.41;;;9.08;100.00
54882;BME280;40775;51.448;4.742;2023-04-21T01:46:04;101339.06;;;9.02;100.00
54882;BME280;40775;51.448;4.742;2023-04-21T01:48:32;101334.03;;;9.07;100.00
54882;BME280;40775;51.448;4.742;2023-04-21T01:50:59;101327.75;;;9.03;100.00
54882;BME280;40775;51.448;4.742;2023-04-21T01:53:26;101330.31;;;9.02;100.00
54882;BME280;40775;51.448;4.742;2023-04-21T01:55:53;101326.72;;;8.98;100.00
54882;BME280;40775;51.448;4.742;2023-04-21T01:58:20;101331.13;;;8.99;100.00
54882;BME280;40775;51.448;4.742;2023-04-21T02:00:47;101335.47;;;8.98;100.00
54882;BME280;40775;51.448;4.742;2023-04-21T02:03:15;101329.22;;;8.95;100.00
54882;BME280;40775;51.448;4.742;2023-04-21T02:05:42;101330.13;;;8.95;100.00
54882;BME280;40775;51.448;4.742;2023-04-21T02:08:09;101332.75;;;8.95;100.00
54882;BME280;40775;51.448;4.742;2023-04-21T02:10:36;101334.56;;;8.98;100.00
54882;BME280;40775;51.448;4.742;2023-04-21T02:13:03;101327.72;;;9.02;100.00
54882;BME280;40775;51.448;4.742;2023-04-21T02:15:30;101317.13;;;8.98;100.00
54882;BME280;40775;51.448;4.742;2023-04-21T02:17:57;101317.03;;;8.95;100.00
54882;BME280;40775;51.448;4.742;2023-04-21T02:20:25;101309.13;;;8.94;100.00
54882;BME280;40775;51.448;4.742;2023-04-21T02:22:52;101311.75;;;8.94;100.00
54882;BME280;40775;51.448;4.742;2023-04-21T02:25:19;101301.38;;;8.97;100.00
54882;BME280;40775;51.448;4.742;2023-04-21T02:27:46;101303.84;;;8.92;100.00
54882;BME280;40775;51.448;4.742;2023-04-21T02:30:13;101299.59;;;8.96;100.00
54882;BME280;40775;51.448;4.742;2023-04-21T02:32:40;101299.44;;;8.91;100.00
54882;BME280;40775;51.448;4.742;2023-04-21T02:35:08;101287.38;;;8.96;100.00
54882;BME280;40775;51.448;4.742;2023-04-21T02:37:35;101294.25;;;8.93;100.00
54882;BME280;40775;51.448;4.742;2023-04-21T02:40:03;101290.75;;;8.92;100.00
54882;BME280;40775;51.448;4.742;2023-04-21T02:42:32;101296.88;;;8.93;100.00
54882;BME280;40775;51.448;4.742;2023-04-21T02:45:00;101295.09;;;8.92;100.00
54882;BME280;40775;51.448;4.742;2023-04-21T02:47:27;101297.66;;;8.90;100.00
54882;BME280;40775;51.448;4.742;2023-04-21T02:49:54;101295.03;;;8.90;100.00
54882;BME280;40775;51.448;4.742;2023-04-21T02:52:21;101293.28;;;8.89;100.00
54882;BME280;40775;51.448;4.742;2023-04-21T02:54:48;101281.81;;;8.86;100.00
54882;BME280;40775;51.448;4.742;2023-04-21T02:57:15;101287.97;;;8.88;100.00
54882;BME280;40775;51.448;4.742;2023-04-21T02:59:42;101289.72;;;8.87;100.00
54882;BME280;40775;51.448;4.742;2023-04-21T03:02:09;101294.94;;;8.87;100.00
54882;BME280;40775;51.448;4.742;2023-04-21T03:04:37;101287.94;;;8.86;100.00
54882;BME280;40775;51.448;4.742;2023-04-21T03:07:10;101282.63;;;8.85;100.00
54882;BME280;40775;51.448;4.742;2023-04-21T03:09:37;101285.38;;;8.88;100.00
54882;BME280;40775;51.448;4.742;2023-04-21T03:12:04;101288.06;;;8.91;100.00
54882;BME280;40775;51.448;4.742;2023-04-21T03:14:31;101277.56;;;8.89;100.00
54882;BME280;40775;51.448;4.742;2023-04-21T03:16:58;101276.72;;;8.90;100.00
54882;BME280;40775;51.448;4.742;2023-04-21T03:19:25;101274.94;;;8.89;100.00
54882;BME280;40775;51.448;4.742;2023-04-21T03:21:52;101274.94;;;8.89;100.00
54882;BME280;40775;51.448;4.742;2023-04-21T03:24:19;101268.91;;;8.92;100.00
54882;BME280;40775;51.448;4.742;2023-04-21T03:26:47;101270.59;;;8.90;100.00
54882;BME280;40775;51.448;4.742;2023-04-21T03:29:14;101261.06;;;8.92;100.00
54882;BME280;40775;51.448;4.742;2023-04-21T03:31:41;101257.50;;;8.90;100.00
54882;BME280;40775;51.448;4.742;2023-04-21T03:34:08;101267.13;;;8.91;100.00
54882;BME280;40775;51.448;4.742;2023-04-21T03:36:35;101261.94;;;8.92;100.00
54882;BME280;40775;51.448;4.742;2023-04-21T03:39:02;101272.47;;;8.94;100.00
54882;BME280;40775;51.448;4.742;2023-04-21T03:41:45;101268.13;;;8.94;100.00
54882;BME280;40775;51.448;4.742;2023-04-21T03:44:12;101263.72;;;8.93;100.00
54882;BME280;40775;51.448;4.742;2023-04-21T03:46:39;101261.16;;;8.95;100.00
54882;BME280;40775;51.448;4.742;2023-04-21T03:49:06;101257.66;;;8.94;100.00
54882;BME280;40775;51.448;4.742;2023-04-21T03:51:33;101261.25;;;8.98;100.00
54882;BME280;40775;51.448;4.742;2023-04-21T03:54:00;101258.63;;;8.98;100.00
54882;BME280;40775;51.448;4.742;2023-04-21T03:56:27;101256.91;;;8.98;100.00
54882;BME280;40775;51.448;4.742;2023-04-21T03:58:54;101262.97;;;8.97;100.00
54882;BME280;40775;51.448;4.742;2023-04-21T04:01:21;101264.75;;;8.98;100.00
54882;BME280;40775;51.448;4.742;2023-04-21T04:03:48;101262.25;;;9.02;100.00
54882;BME280;40775;51.448;4.742;2023-04-21T04:06:15;101265.75;;;9.02;100.00
54882;BME280;40775;51.448;4.742;2023-04-21T04:08:43;101265.97;;;9.08;100.00
54882;BME280;40775;51.448;4.742;2023-04-21T04:11:10;101267.63;;;9.05;100.00
54882;BME280;40775;51.448;4.742;2023-04-21T04:13:37;101263.31;;;9.07;100.00
54882;BME280;40775;51.448;4.742;2023-04-21T04:16:04;101273.66;;;9.04;100.00
54882;BME280;40775;51.448;4.742;2023-04-21T04:18:31;101263.31;;;9.07;100.00
54882;BME280;40775;51.448;4.742;2023-04-21T04:21:04;101258.22;;;9.11;100.00
54882;BME280;40775;51.448;4.742;2023-04-21T04:23:32;101258.97;;;9.07;100.00
54882;BME280;40775;51.448;4.742;2023-04-21T04:26:03;101252.72;;;9.04;100.00
54882;BME280;40775;51.448;4.742;2023-04-21T04:28:33;101243.97;;;9.03;100.00
54882;BME280;40775;51.448;4.742;2023-04-21T04:31:00;101250.00;;;9.01;100.00
54882;BME280;40775;51.448;4.742;2023-04-21T04:33:29;101247.38;;;9.01;100.00
54882;BME280;40775;51.448;4.742;2023-04-21T04:35:56;101242.13;;;9.01;100.00
54882;BME280;40775;51.448;4.742;2023-04-21T04:38:24;101239.38;;;8.96;100.00
54882;BME280;40775;51.448;4.742;2023-04-21T04:40:54;101235.84;;;8.95;100.00
54882;BME280;40775;51.448;4.742;2023-04-21T04:43:23;101234.94;;;8.93;100.00
54882;BME280;40775;51.448;4.742;2023-04-21T04:45:51;101232.34;;;8.95;100.00
54882;BME280;40775;51.448;4.742;2023-04-21T04:48:18;101240.91;;;8.89;100.00
54882;BME280;40775;51.448;4.742;2023-04-21T04:50:45;101241.75;;;8.88;100.00
54882;BME280;40775;51.448;4.742;2023-04-21T04:53:12;101248.66;;;8.86;100.00
54882;BME280;40775;51.448;4.742;2023-04-21T04:55:39;101253.91;;;8.86;100.00
54882;BME280;40775;51.448;4.742;2023-04-21T04:58:06;101251.31;;;8.88;100.00
54882;BME280;40775;51.448;4.742;2023-04-21T05:00:33;101257.41;;;8.87;100.00
54882;BME280;40775;51.448;4.742;2023-04-21T05:03:00;101267.03;;;8.88;100.00
54882;BME280;40775;51.448;4.742;2023-04-21T05:05:28;101266.16;;;8.87;100.00
54882;BME280;40775;51.448;4.742;2023-04-21T05:07:55;101266.16;;;8.87;100.00
54882;BME280;40775;51.448;4.742;2023-04-21T05:10:22;101260.03;;;8.87;100.00
54882;BME280;40775;51.448;4.742;2023-04-21T05:12:49;101262.53;;;8.84;100.00
54882;BME280;40775;51.448;4.742;2023-04-21T05:15:17;101267.81;;;8.85;100.00
54882;BME280;40775;51.448;4.742;2023-04-21T05:17:44;101268.66;;;8.84;100.00
54882;BME280;40775;51.448;4.742;2023-04-21T05:20:11;101268.81;;;8.89;100.00
54882;BME280;40775;51.448;4.742;2023-04-21T05:22:38;101267.91;;;8.88;100.00
54882;BME280;40775;51.448;4.742;2023-04-21T05:25:06;101281.97;;;8.90;100.00
54882;BME280;40775;51.448;4.742;2023-04-21T05:27:33;101275.81;;;8.90;100.00
54882;BME280;40775;51.448;4.742;2023-04-21T05:30:00;101277.56;;;8.89;100.00
54882;BME280;40775;51.448;4.742;2023-04-21T05:32:27;101274.09;;;8.90;100.00
54882;BME280;40775;51.448;4.742;2023-04-21T05:34:55;101284.56;;;8.90;100.00
54882;BME280;40775;51.448;4.742;2023-04-21T05:37:22;101284.47;;;8.87;100.00
54882;BME280;40775;51.448;4.742;2023-04-21T05:39:50;101276.75;;;8.92;100.00
54882;BME280;40775;51.448;4.742;2023-04-21T05:42:17;101275.00;;;8.91;100.00
54882;BME280;40775;51.448;4.742;2023-04-21T05:44:44;101276.03;;;8.96;100.00
54882;BME280;40775;51.448;4.742;2023-04-21T05:47:11;101281.41;;;11.06;100.00
54882;BME280;40775;51.448;4.742;2023-04-21T05:49:38;101277.25;;;12.30;100.00
54882;BME280;40775;51.448;4.742;2023-04-21T05:52:08;101276.31;;;13.18;100.00
54882;BME280;40775;51.448;4.742;2023-04-21T05:54:36;101266.44;;;13.64;100.00
54882;BME280;40775;51.448;4.742;2023-04-21T05:57:03;101266.94;;;13.98;100.00
54882;BME280;40775;51.448;4.742;2023-04-21T05:59:31;101264.50;;;14.16;100.00
54882;BME280;40775;51.448;4.742;2023-04-21T06:01:58;101265.56;;;14.29;100.00
54882;BME280;40775;51.448;4.742;2023-04-21T06:04:25;101265.69;;;14.39;100.00
54882;BME280;40775;51.448;4.742;2023-04-21T06:06:53;101264.91;;;14.46;100.00
54882;BME280;40775;51.448;4.742;2023-04-21T06:09:20;101264.13;;;14.52;100.00
54882;BME280;40775;51.448;4.742;2023-04-21T06:11:47;101267.59;;;14.51;100.00
54882;BME280;40775;51.448;4.742;2023-04-21T06:14:14;101252.63;;;14.51;100.00
54882;BME280;40775;51.448;4.742;2023-04-21T06:16:41;101253.56;;;14.55;100.00
54882;BME280;40775;51.448;4.742;2023-04-21T06:19:08;101258.91;;;14.60;100.00
54882;BME280;40775;51.448;4.742;2023-04-21T06:21:35;101257.25;;;14.71;100.00
54882;BME280;40775;51.448;4.742;2023-04-21T06:24:02;101257.28;;;14.77;100.00
54882;BME280;40775;51.448;4.742;2023-04-21T06:26:29;101255.63;;;14.83;100.00
54882;BME280;40775;51.448;4.742;2023-04-21T06:28:56;101257.44;;;14.91;100.00
54882;BME280;40775;51.448;4.742;2023-04-21T06:31:23;101249.50;;;14.89;100.00
54882;BME280;40775;51.448;4.742;2023-04-21T06:33:50;101249.53;;;14.94;100.00
54882;BME280;40775;51.448;4.742;2023-04-21T06:36:17;101255.78;;;15.03;100.00
54882;BME280;40775;51.448;4.742;2023-04-21T06:38:44;101259.38;;;15.08;100.00
54882;BME280;40775;51.448;4.742;2023-04-21T06:41:12;101256.78;;;15.14;100.00
54882;BME280;40775;51.448;4.742;2023-04-21T06:43:39;101260.34;;;15.23;100.00
54882;BME280;40775;51.448;4.742;2023-04-21T06:46:06;101250.69;;;15.25;100.00
54882;BME280;40775;51.448;4.742;2023-04-21T06:48:33;101254.22;;;15.30;100.00
54882;BME280;40775;51.448;4.742;2023-04-21T06:51:00;101259.59;;;15.34;100.00
54882;BME280;40775;51.448;4.742;2023-04-21T06:53:28;101248.13;;;15.37;100.00
54882;BME280;40775;51.448;4.742;2023-04-21T06:55:55;101246.41;;;15.42;100.00
54882;BME280;40775;51.448;4.742;2023-04-21T06:58:22;101248.19;;;15.44;100.00
54882;BME280;40775;51.448;4.742;2023-04-21T07:00:49;101248.19;;;15.48;100.00
54882;BME280;40775;51.448;4.742;2023-04-21T07:03:17;101242.94;;;15.52;100.00
54882;BME280;40775;51.448;4.742;2023-04-21T07:05:44;101247.34;;;15.53;100.00
54882;BME280;40775;51.448;4.742;2023-04-21T07:08:11;101234.13;;;15.56;100.00
54882;BME280;40775;51.448;4.742;2023-04-21T07:10:38;101235.03;;;15.57;100.00
54882;BME280;40775;51.448;4.742;2023-04-21T07:13:05;101229.75;;;15.58;100.00
54882;BME280;40775;51.448;4.742;2023-04-21T07:15:35;101233.34;;;15.62;100.00
54882;BME280;40775;51.448;4.742;2023-04-21T07:18:02;101228.94;;;15.62;100.00
54882;BME280;40775;51.448;4.742;2023-04-21T07:20:29;101218.34;;;15.64;100.00
54882;BME280;40775;51.448;4.742;2023-04-21T07:22:56;101243.06;;;15.66;100.00
54882;BME280;40775;51.448;4.742;2023-04-21T07:25:23;101226.31;;;15.67;100.00
54882;BME280;40775;51.448;4.742;2023-04-21T07:27:50;101229.84;;;15.67;100.00
54882;BME280;40775;51.448;4.742;2023-04-21T07:30:18;101240.44;;;15.69;100.00
54882;BME280;40775;51.448;4.742;2023-04-21T07:32:45;101236.03;;;15.69;100.00
54882;BME280;40775;51.448;4.742;2023-04-21T07:35:13;101240.44;;;15.72;100.00
54882;BME280;40775;51.448;4.742;2023-04-21T07:37:40;101243.97;;;15.72;100.00
54882;BME280;40775;51.448;4.742;2023-04-21T07:40:08;101249.28;;;15.74;100.00
54882;BME280;40775;51.448;4.742;2023-04-21T07:42:35;101244.88;;;15.76;100.00
54882;BME280;40775;51.448;4.742;2023-04-21T07:45:03;101241.34;;;15.77;100.00
54882;BME280;40775;51.448;4.742;2023-04-21T07:47:31;101239.59;;;15.77;100.00
54882;BME280;40775;51.448;4.742;2023-04-21T07:49:58;101243.13;;;15.78;100.00
54882;BME280;40775;51.448;4.742;2023-04-21T07:52:25;101248.44;;;15.80;100.00
54882;BME280;40775;51.448;4.742;2023-04-21T07:54:52;101251.06;;;15.80;100.00
54882;BME280;40775;51.448;4.742;2023-04-21T07:57:19;101251.97;;;15.80;100.00
54882;BME280;40775;51.448;4.742;2023-04-21T07:59:46;101240.50;;;15.81;100.00
54882;BME280;40775;51.448;4.742;2023-04-21T08:02:13;101247.56;;;15.82;100.00
54882;BME280;40775;51.448;4.742;2023-04-21T08:04:40;101243.13;;;15.83;100.00
54882;BME280;40775;51.448;4.742;2023-04-21T08:07:07;101253.75;;;15.84;100.00
54882;BME280;40775;51.448;4.742;2023-04-21T08:09:36;101245.78;;;15.84;100.00
54882;BME280;40775;51.448;4.742;2023-04-21T08:12:03;101241.38;;;15.85;100.00
54882;BME280;40775;51.448;4.742;2023-04-21T08:14:30;101237.84;;;15.86;100.00
54882;BME280;40775;51.448;4.742;2023-04-21T08:16:58;101235.22;;;15.87;100.00
54882;BME280;40775;51.448;4.742;2023-04-21T08:19:25;101235.22;;;15.87;100.00
54882;BME280;40775;51.448;4.742;2023-04-21T08:21:53;101230.81;;;15.88;100.00
54882;BME280;40775;51.448;4.742;2023-04-21T08:24:20;101233.44;;;15.88;100.00
54882;BME280;40775;51.448;4.742;2023-04-21T08:26:47;101230.81;;;15.88;100.00
54882;BME280;40775;51.448;4.742;2023-04-21T08:29:14;101239.69;;;15.90;100.00
54882;BME280;40775;51.448;4.742;2023-04-21T08:31:41;101237.03;;;15.90;100.00
54882;BME280;40775;51.448;4.742;2023-04-21T08:34:08;101239.69;;;15.90;100.00
54882;BME280;40775;51.448;4.742;2023-04-21T08:36:35;101239.69;;;15.91;100.00
54882;BME280;40775;51.448;4.742;2023-04-21T08:39:02;101232.63;;;15.92;100.00
54882;BME280;40775;51.448;4.742;2023-04-21T08:41:29;101237.03;;;15.93;100.00
54882;BME280;40775;51.448;4.742;2023-04-21T08:43:57;101233.50;;;15.94;100.00
54882;BME280;40775;51.448;4.742;2023-04-21T08:46:24;101234.38;;;15.93;100.00
54882;BME280;40775;51.448;4.742;2023-04-21T08:48:53;101230.88;;;15.94;100.00
54882;BME280;40775;51.448;4.742;2023-04-21T08:51:22;101232.63;;;15.93;100.00
54882;BME280;40775;51.448;4.742;2023-04-21T08:53:50;101230.88;;;15.94;100.00
54882;BME280;40775;51.448;4.742;2023-04-21T08:56:18;101225.56;;;15.95;100.00
54882;BME280;40775;51.448;4.742;2023-04-21T08:58:45;101214.97;;;15.95;100.00
54882;BME280;40775;51.448;4.742;2023-04-21T09:01:12;101216.75;;;15.96;100.00
54882;BME280;40775;51.448;4.742;2023-04-21T09:03:39;101213.22;;;15.97;100.00
54882;BME280;40775;51.448;4.742;2023-04-21T09:06:08;101206.16;;;15.98;100.00
54882;BME280;40775;51.448;4.742;2023-04-21T09:08:51;101211.44;;;15.98;100.00
54882;BME280;40775;51.448;4.742;2023-04-21T09:11:18;101201.75;;;16.00;100.00
54882;BME280;40775;51.448;4.742;2023-04-21T09:13:45;101206.16;;;15.99;100.00
54882;BME280;40775;51.448;4.742;2023-04-21T09:16:18;101208.81;;;16.01;100.00
54882;BME280;40775;51.448;4.742;2023-04-21T09:18:48;101201.75;;;16.01;100.00
54882;BME280;40775;51.448;4.742;2023-04-21T09:21:17;101203.53;;;16.01;100.00
54882;BME280;40775;51.448;4.742;2023-04-21T09:23:52;101202.63;;;16.02;100.00
54882;BME280;40775;51.448;4.742;2023-04-21T09:26:21;101203.53;;;16.02;100.00
54882;BME280;40775;51.448;4.742;2023-04-21T09:28:51;101207.94;;;16.03;100.00
54882;BME280;40775;51.448;4.742;2023-04-21T09:31:21;101200.88;;;16.04;100.00
54882;BME280;40775;51.448;4.742;2023-04-21T09:33:56;101212.34;;;16.04;100.00
54882;BME280;40775;51.448;4.742;2023-04-21T09:36:29;101207.06;;;16.04;100.00
54882;BME280;40775;51.448;4.742;2023-04-21T09:39:00;101207.94;;;16.05;100.00
54882;BME280;40775;51.448;4.742;2023-04-21T09:41:31;101207.06;;;16.06;100.00
54882;BME280;40775;51.448;4.742;2023-04-21T09:43:58;101199.13;;;16.06;100.00
54882;BME280;40775;51.448;4.742;2023-04-21T09:46:34;101203.53;;;16.07;100.00
54882;BME280;40775;51.448;4.742;2023-04-21T09:49:03;101197.34;;;16.08;100.00
54882;BME280;40775;51.448;4.742;2023-04-21T09:51:31;101195.59;;;16.07;100.00
54882;BME280;40775;51.448;4.742;2023-04-21T09:54:20;101189.41;;;16.08;100.00
54882;BME280;40775;51.448;4.742;2023-04-21T09:56:53;101183.22;;;16.09;100.00
54882;BME280;40775;51.448;4.742;2023-04-21T09:59:28;101188.53;;;16.11;100.00
54882;BME280;40775;51.448;4.742;2023-04-21T10:01:57;101186.78;;;16.11;100.00
54882;BME280;40775;51.448;4.742;2023-04-21T10:04:27;101185.88;;;16.12;100.00
54882;BME280;40775;51.448;4.742;2023-04-21T10:06:55;101177.94;;;16.12;100.00
54882;BME280;40775;51.448;4.742;2023-04-21T10:09:25;101179.72;;;16.13;100.00
54882;BME280;40775;51.448;4.742;2023-04-21T10:11:53;101181.47;;;16.14;100.00
54882;BME280;40775;51.448;4.742;2023-04-21T10:14:21;101181.47;;;16.14;100.00
54882;BME280;40775;51.448;4.742;2023-04-21T10:17:06;101179.75;;;16.16;100.00
54882;BME280;40775;51.448;4.742;2023-04-21T10:19:36;101188.59;;;16.18;100.00
54882;BME280;40775;51.448;4.742;2023-04-21T10:22:07;101182.41;;;16.16;100.00
54882;BME280;40775;51.448;4.742;2023-04-21T10:24:38;101168.28;;;16.17;100.00
54882;BME280;40775;51.448;4.742;2023-04-21T10:27:11;101163.84;;;16.18;100.00
54882;BME280;40775;51.448;4.742;2023-04-21T10:29:38;101154.16;;;16.18;100.00
54882;BME280;40775;51.448;4.742;2023-04-21T10:32:42;101157.69;;;16.19;100.00
54882;BME280;40775;51.448;4.742;2023-04-21T10:35:59;101153.25;;;16.19;100.00
54882;BME280;40775;51.448;4.742;2023-04-21T10:38:35;101146.19;;;16.21;100.00
54882;BME280;40775;51.448;4.742;2023-04-21T10:44:12;101140.91;;;16.21;100.00
54882;BME280;40775;51.448;4.742;2023-04-21T10:46:51;101135.59;;;16.23;100.00
54882;BME280;40775;51.448;4.742;2023-04-21T10:49:28;101131.19;;;16.25;100.00
54882;BME280;40775;51.448;4.742;2023-04-21T10:54:40;101124.13;;;16.25;100.00
54882;BME280;40775;51.448;4.742;2023-04-21T10:57:09;101119.72;;;16.26;100.00
54882;BME280;40775;51.448;4.742;2023-04-21T10:59:37;101117.94;;;16.26;100.00
54882;BME280;40775;51.448;4.742;2023-04-21T11:02:06;101118.81;;;16.27;100.00
54882;BME280;40775;51.448;4.742;2023-04-21T11:04:34;101125.88;;;16.28;100.00
54882;BME280;40775;51.448;4.742;2023-04-21T11:09:40;101111.75;;;16.29;100.00
54882;BME280;40775;51.448;4.742;2023-04-21T11:12:13;101105.59;;;16.28;100.00
54882;BME280;40775;51.448;4.742;2023-04-21T11:14:43;101099.41;;;16.29;100.00
54882;BME280;40775;51.448;4.742;2023-04-21T11:17:15;101098.50;;;16.30;100.00
54882;BME280;40775;51.448;4.742;2023-04-21T11:19:48;101087.91;;;16.32;100.00
54882;BME280;40775;51.448;4.742;2023-04-21T11:22:22;101080.84;;;16.31;100.00
54882;BME280;40775;51.448;4.742;2023-04-21T11:24:55;101093.22;;;16.32;100.00
54882;BME280;40775;51.448;4.742;2023-04-21T11:27:25;101079.97;;;16.32;100.00
54882;BME280;40775;51.448;4.742;2023-04-21T11:29:53;101078.19;;;16.34;100.00
54882;BME280;40775;51.448;4.742;2023-04-21T11:32:20;101073.78;;;16.34;100.00
54882;BME280;40775;51.448;4.742;2023-04-21T11:34:47;101066.72;;;16.35;100.00
54882;BME280;40775;51.448;4.742;2023-04-21T11:37:23;101064.94;;;16.35;100.00
54882;BME280;40775;51.448;4.742;2023-04-21T11:39:57;101053.47;;;16.36;100.00
54882;BME280;40775;51.448;4.742;2023-04-21T11:42:25;101046.41;;;16.37;100.00
54882;BME280;40775;51.448;4.742;2023-04-21T11:44:55;101041.97;;;16.37;100.00
54882;BME280;40775;51.448;4.742;2023-04-21T11:47:27;101039.34;;;16.39;100.00
54882;BME280;40775;51.448;4.742;2023-04-21T11:49:57;101035.81;;;16.40;100.00
54882;BME280;40775;51.448;4.742;2023-04-21T11:52:32;101036.69;;;16.41;100.00
54882;BME280;40775;51.448;4.742;2023-04-21T11:55:05;101028.72;;;16.41;100.00
54882;BME280;40775;51.448;4.742;2023-04-21T11:57:39;101025.19;;;16.43;100.00
54882;BME280;40775;51.448;4.742;2023-04-21T12:00:10;101016.38;;;16.43;100.00
54882;BME280;40775;51.448;4.742;2023-04-21T12:02:42;101011.97;;;16.45;100.00
54882;BME280;40775;51.448;4.742;2023-04-21T12:05:12;101008.44;;;16.44;100.00
54882;BME280;40775;51.448;4.742;2023-04-21T12:07:44;101011.97;;;16.45;100.00
54882;BME280;40775;51.448;4.742;2023-04-21T12:10:21;101013.75;;;16.47;100.00
54882;BME280;40775;51.448;4.742;2023-04-21T12:12:48;101011.97;;;16.48;100.00
54882;BME280;40775;51.448;4.742;2023-04-21T12:15:19;101013.72;;;16.49;100.00
54882;BME280;40775;51.448;4.742;2023-04-21T12:17:53;101000.47;;;16.49;100.00
54882;BME280;40775;51.448;4.742;2023-04-21T12:20:22;101003.13;;;16.49;100.00
54882;BME280;40775;51.448;4.742;2023-04-21T12:22:49;101011.97;;;16.51;100.00
54882;BME280;40775;51.448;4.742;2023-04-21T12:25:17;101002.25;;;16.50;100.00
54882;BME280;40775;51.448;4.742;2023-04-21T12:27:52;101004.88;;;16.53;100.00
54882;BME280;40775;51.448;4.742;2023-04-21T12:30:20;100994.28;;;16.53;100.00
54882;BME280;40775;51.448;4.742;2023-04-21T12:32:48;100996.06;;;16.54;100.00
54882;BME280;40775;51.448;4.742;2023-04-21T12:35:15;100995.16;;;16.55;100.00
54882;BME280;40775;51.448;4.742;2023-04-21T12:37:43;101003.09;;;16.58;100.00
54882;BME280;40775;51.448;4.742;2023-04-21T12:40:10;100995.16;;;16.58;100.00
54882;BME280;40775;51.448;4.742;2023-04-21T12:42:37;100990.75;;;16.58;100.00
54882;BME280;40775;51.448;4.742;2023-04-21T12:45:05;100987.19;;;16.59;100.00
54882;BME280;40775;51.448;4.742;2023-04-21T12:47:33;100997.78;;;16.61;100.00
54882;BME280;40775;51.448;4.742;2023-04-21T12:50:01;101001.31;;;16.61;100.00
54882;BME280;40775;51.448;4.742;2023-04-21T12:52:28;100997.78;;;16.62;100.00
54882;BME280;40775;51.448;4.742;2023-04-21T12:54:55;100995.13;;;16.64;100.00
54882;BME280;40775;51.448;4.742;2023-04-21T12:57:22;101001.31;;;16.64;100.00
54882;BME280;40775;51.448;4.742;2023-04-21T12:59:49;100995.13;;;16.65;100.00
54882;BME280;40775;51.448;4.742;2023-04-21T13:02:16;101001.34;;;16.66;100.00